sensor_id;sensor_type;location;lat;lon;timestamp;pressure;altitude;pressure_sealevel;temperature;humidity
9277;BME280;4676;42.678;23.244;2024-03-08T00:01:33;94094.97;;;4.60;100.00
9277;BME280;4676;42.678;23.244;2024-03-08T00:04:01;94100.72;;;4.65;100.00
9277;BME280;4676;42.678;23.244;2024-03-08T00:06:28;94095.56;;;4.73;100.00
9277;BME280;4676;42.678;23.244;2024-03-08T00:08:55;94094.72;;;4.74;100.00
9277;BME280;4676;42.678;23.244;2024-03-08T00:11:22;94098.91;;;4.72;100.00
9277;BME280;4676;42.678;23.244;2024-03-08T00:13:54;94092.16;;;4.77;100.00
9277;BME280;4676;42.678;23.244;2024-03-08T00:16:21;94091.13;;;4.87;100.00
9277;BME280;4676;42.678;23.244;2024-03-08T00:18:48;94092.59;;;4.97;100.00
9277;BME280;4676;42.678;23.244;2024-03-08T00:21:16;94091.69;;;5.01;100.00
9277;BME280;4676;42.678;23.244;2024-03-08T00:23:43;94086.84;;;4.92;100.00
9277;BME280;4676;42.678;23.244;2024-03-08T00:26:10;94085.19;;;4.91;100.00
9277;BME280;4676;42.678;23.244;2024-03-08T00:28:37;94087.72;;;4.89;100.00
9277;BME280;4676;42.678;23.244;2024-03-08T00:31:03;94085.19;;;4.92;100.00
9277;BME280;4676;42.678;23.244;2024-03-08T00:33:32;94080.25;;;4.86;100.00
9277;BME280;4676;42.678;23.244;2024-03-08T00:35:59;94082.75;;;4.86;100.00
9277;BME280;4676;42.678;23.244;2024-03-08T00:38:27;94089.56;;;4.81;100.00
9277;BME280;4676;42.678;23.244;2024-03-08T00:40:54;94082.94;;;4.77;100.00
9277;BME280;4676;42.678;23.244;2024-03-08T00:43:21;94076.06;;;4.87;100.00
9277;BME280;4676;42.678;23.244;2024-03-08T00:45:48;94074.25;;;4.93;100.00
9277;BME280;4676;42.678;23.244;2024-03-08T00:48:14;94081.13;;;4.85;100.00
9277;BME280;4676;42.678;23.244;2024-03-08T00:50:41;94068.38;;;4.94;100.00
9277;BME280;4676;42.678;23.244;2024-03-08T00:53:10;94066.66;;;4.98;100.00
9277;BME280;4676;42.678;23.244;2024-03-08T00:55:38;94067.63;;;4.91;100.00
9277;BME280;4676;42.678;23.244;2024-03-08T00:58:05;94066.78;;;4.90;100.00
9277;BME280;4676;42.678;23.244;2024-03-08T01:00:33;94062.47;;;4.97;100.00
9277;BME280;4676;42.678;23.244;2024-03-08T01:03:00;94065.28;;;4.82;100.00
9277;BME280;4676;42.678;23.244;2024-03-08T01:05:28;94065.00;;;4.51;100.00
9277;BME280;4676;42.678;23.244;2024-03-08T01:07:55;94060.53;;;4.67;100.00
9277;BME280;4676;42.678;23.244;2024-03-08T01:10:22;94053.78;;;4.70;100.00
9277;BME280;4676;42.678;23.244;2024-03-08T01:12:50;94056.34;;;4.67;100.00
9277;BME280;4676;42.678;23.244;2024-03-08T01:15:17;94044.84;;;4.56;100.00
9277;BME280;4676;42.678;23.244;2024-03-08T01:17:45;94047.50;;;4.48;100.00
9277;BME280;4676;42.678;23.244;2024-03-08T01:20:11;94054.97;;;4.51;100.00
9277;BME280;4676;42.678;23.244;2024-03-08T01:22:38;94058.31;;;4.51;100.00
9277;BME280;4676;42.678;23.244;2024-03-08T01:25:06;94048.06;;;4.62;100.00
9277;BME280;4676;42.678;23.244;2024-03-08T01:27:33;94049.81;;;4.59;100.00
9277;BME280;4676;42.678;23.244;2024-03-08T01:30:02;94045.59;;;4.61;100.00
9277;BME280;4676;42.678;23.244;2024-03-08T01:32:29;94045.50;;;4.67;100.00
9277;BME280;4676;42.678;23.244;2024-03-08T01:34:56;94044.84;;;4.56;100.00
9277;BME280;4676;42.678;23.244;2024-03-08T01:37:23;94042.25;;;4.60;100.00
9277;BME280;4676;42.678;23.244;2024-03-08T01:39:49;94038.94;;;4.58;100.00
9277;BME280;4676;42.678;23.244;2024-03-08T01:42:16;94033.09;;;4.58;100.00
9277;BME280;4676;42.678;23.244;2024-03-08T01:44:43;94035.91;;;4.41;100.00
9277;BME280;4676;42.678;23.244;2024-03-08T01:47:11;94038.41;;;4.41;100.00
9277;BME280;4676;42.678;23.244;2024-03-08T01:49:38;94041.69;;;4.46;100.00
9277;BME280;4676;42.678;23.244;2024-03-08T01:52:06;94038.09;;;4.59;100.00
9277;BME280;4676;42.678;23.244;2024-03-08T01:54:33;94028.00;;;4.62;100.00
9277;BME280;4676;42.678;23.244;2024-03-08T01:57:01;94036.34;;;4.63;100.00
9277;BME280;4676;42.678;23.244;2024-03-08T01:59:28;94029.72;;;4.59;100.00
9277;BME280;4676;42.678;23.244;2024-03-08T02:01:55;94036.28;;;4.67;100.00
9277;BME280;4676;42.678;23.244;2024-03-08T02:04:25;94026.75;;;4.83;100.00
9277;BME280;4676;42.678;23.244;2024-03-08T02:06:52;94034.34;;;4.80;100.00
9277;BME280;4676;42.678;23.244;2024-03-08T02:09:19;94023.22;;;4.93;100.00
9277;BME280;4676;42.678;23.244;2024-03-08T02:11:46;94033.09;;;5.02;100.00
9277;BME280;4676;42.678;23.244;2024-03-08T02:14:13;94027.94;;;5.08;100.00
9277;BME280;4676;42.678;23.244;2024-03-08T02:16:39;94029.81;;;4.98;100.00
9277;BME280;4676;42.678;23.244;2024-03-08T02:19:06;94028.22;;;4.93;100.00
9277;BME280;4676;42.678;23.244;2024-03-08T02:21:36;94028.75;;;5.09;100.00
9277;BME280;4676;42.678;23.244;2024-03-08T02:24:04;94033.84;;;5.06;100.00
9277;BME280;4676;42.678;23.244;2024-03-08T02:26:31;94026.44;;;4.99;100.00
9277;BME280;4676;42.678;23.244;2024-03-08T02:28:58;94032.81;;;5.14;100.00
9277;BME280;4676;42.678;23.244;2024-03-08T02:31:24;94014.59;;;5.06;100.00
9277;BME280;4676;42.678;23.244;2024-03-08T02:33:51;94041.25;;;5.12;100.00
9277;BME280;4676;42.678;23.244;2024-03-08T02:36:18;94037.28;;;5.00;100.00
9277;BME280;4676;42.678;23.244;2024-03-08T02:38:46;94041.38;;;5.06;100.00
9277;BME280;4676;42.678;23.244;2024-03-08T02:41:12;94037.97;;;5.10;100.00
9277;BME280;4676;42.678;23.244;2024-03-08T02:43:39;94036.16;;;5.15;100.00
9277;BME280;4676;42.678;23.244;2024-03-08T02:46:06;94038.63;;;5.18;100.00
9277;BME280;4676;42.678;23.244;2024-03-08T02:48:32;94036.16;;;5.15;100.00
9277;BME280;4676;42.678;23.244;2024-03-08T02:50:59;94036.31;;;5.07;100.00
9277;BME280;4676;42.678;23.244;2024-03-08T02:53:27;94038.81;;;5.07;100.00
9277;BME280;4676;42.678;23.244;2024-03-08T02:55:55;94029.81;;;4.97;100.00
9277;BME280;4676;42.678;23.244;2024-03-08T02:58:22;94037.97;;;5.08;100.00
9277;BME280;4676;42.678;23.244;2024-03-08T03:00:49;94039.66;;;5.08;100.00
9277;BME280;4676;42.678;23.244;2024-03-08T03:03:16;94033.88;;;5.04;100.00
9277;BME280;4676;42.678;23.244;2024-03-08T03:05:42;94038.88;;;5.06;100.00
9277;BME280;4676;42.678;23.244;2024-03-08T03:08:09;94033.91;;;5.02;100.00
9277;BME280;4676;42.678;23.244;2024-03-08T03:10:37;94037.06;;;5.12;100.00
9277;BME280;4676;42.678;23.244;2024-03-08T03:13:05;94038.44;;;5.27;100.00
9277;BME280;4676;42.678;23.244;2024-03-08T03:15:32;94041.72;;;5.30;100.00
9277;BME280;4676;42.678;23.244;2024-03-08T03:17:59;94023.75;;;5.07;100.00
9277;BME280;4676;42.678;23.244;2024-03-08T03:20:25;94045.84;;;5.33;100.00
9277;BME280;4676;42.678;23.244;2024-03-08T03:22:57;94054.16;;;5.36;100.00
9277;BME280;4676;42.678;23.244;2024-03-08T03:25:26;94054.16;;;5.35;100.00
9277;BME280;4676;42.678;23.244;2024-03-08T03:27:58;94045.22;;;5.23;100.00
9277;BME280;4676;42.678;23.244;2024-03-08T03:30:26;94054.38;;;5.26;100.00
9277;BME280;4676;42.678;23.244;2024-03-08T03:32:58;94066.09;;;5.25;100.00
9277;BME280;4676;42.678;23.244;2024-03-08T03:35:26;94064.47;;;5.23;100.00
9277;BME280;4676;42.678;23.244;2024-03-08T03:37:53;94070.41;;;5.20;100.00
9277;BME280;4676;42.678;23.244;2024-03-08T03:40:31;94067.97;;;5.17;100.00
9277;BME280;4676;42.678;23.244;2024-03-08T03:42:58;94069.66;;;5.15;100.00
9277;BME280;4676;42.678;23.244;2024-03-08T03:45:26;94068.75;;;5.19;100.00
9277;BME280;4676;42.678;23.244;2024-03-08T03:47:53;94076.63;;;5.01;100.00
9277;BME280;4676;42.678;23.244;2024-03-08T03:50:19;94078.31;;;5.00;100.00
9277;BME280;4676;42.678;23.244;2024-03-08T03:52:46;94081.78;;;4.93;100.00
9277;BME280;4676;42.678;23.244;2024-03-08T03:55:13;94087.00;;;4.84;100.00
9277;BME280;4676;42.678;23.244;2024-03-08T03:57:43;94089.69;;;4.74;100.00
9277;BME280;4676;42.678;23.244;2024-03-08T04:00:11;94094.69;;;4.75;100.00
9277;BME280;4676;42.678;23.244;2024-03-08T04:02:40;94089.03;;;4.64;100.00
9277;BME280;4676;42.678;23.244;2024-03-08T04:05:07;94089.50;;;4.37;100.00
9277;BME280;4676;42.678;23.244;2024-03-08T04:07:34;94096.09;;;4.42;100.00
9277;BME280;4676;42.678;23.244;2024-03-08T04:10:02;94097.63;;;4.51;100.00
9277;BME280;4676;42.678;23.244;2024-03-08T04:12:29;94112.00;;;4.40;100.00
9277;BME280;4676;42.678;23.244;2024-03-08T04:14:56;94102.81;;;4.40;100.00
9277;BME280;4676;42.678;23.244;2024-03-08T04:17:22;94112.00;;;4.43;100.00
9277;BME280;4676;42.678;23.244;2024-03-08T04:19:52;94114.47;;;4.44;100.00
9277;BME280;4676;42.678;23.244;2024-03-08T04:22:19;94114.94;;;4.65;100.00
9277;BME280;4676;42.678;23.244;2024-03-08T04:24:46;94117.69;;;4.52;100.00
9277;BME280;4676;42.678;23.244;2024-03-08T04:27:13;94105.25;;;4.46;100.00
9277;BME280;4676;42.678;23.244;2024-03-08T04:29:40;94117.63;;;4.56;100.00
9277;BME280;4676;42.678;23.244;2024-03-08T04:32:08;94121.88;;;4.52;100.00
9277;BME280;4676;42.678;23.244;2024-03-08T04:34:35;94129.78;;;4.28;100.00
9277;BME280;4676;42.678;23.244;2024-03-08T04:37:03;94133.09;;;4.30;100.00
9277;BME280;4676;42.678;23.244;2024-03-08T04:39:30;94130.59;;;4.30;100.00
9277;BME280;4676;42.678;23.244;2024-03-08T04:41:59;94135.69;;;4.24;100.00
9277;BME280;4676;42.678;23.244;2024-03-08T04:44:28;94131.47;;;4.26;100.00
9277;BME280;4676;42.678;23.244;2024-03-08T04:46:55;94136.59;;;4.21;100.00
9277;BME280;4676;42.678;23.244;2024-03-08T04:49:22;94133.91;;;4.32;100.00
9277;BME280;4676;42.678;23.244;2024-03-08T04:51:48;94134.81;;;4.26;100.00
9277;BME280;4676;42.678;23.244;2024-03-08T04:54:17;94134.75;;;4.31;100.00
9277;BME280;4676;42.678;23.244;2024-03-08T04:56:44;94139.94;;;4.22;100.00
9277;BME280;4676;42.678;23.244;2024-03-08T04:59:11;94136.59;;;4.20;100.00
9277;BME280;4676;42.678;23.244;2024-03-08T05:01:39;94135.69;;;4.25;100.00
9277;BME280;4676;42.678;23.244;2024-03-08T05:04:06;94133.34;;;4.15;100.00
9277;BME280;4676;42.678;23.244;2024-03-08T05:06:32;94142.38;;;4.25;100.00
9277;BME280;4676;42.678;23.244;2024-03-08T05:08:59;94146.56;;;4.24;100.00
9277;BME280;4676;42.678;23.244;2024-03-08T05:11:30;94149.81;;;4.31;100.00
9277;BME280;4676;42.678;23.244;2024-03-08T05:13:57;94145.00;;;4.17;100.00
9277;BME280;4676;42.678;23.244;2024-03-08T05:16:24;94152.53;;;4.17;100.00
9277;BME280;4676;42.678;23.244;2024-03-08T05:18:51;94156.69;;;4.18;100.00
9277;BME280;4676;42.678;23.244;2024-03-08T05:21:18;94157.50;;;4.19;100.00
9277;BME280;4676;42.678;23.244;2024-03-08T05:23:45;94156.91;;;4.05;100.00
9277;BME280;4676;42.678;23.244;2024-03-08T05:26:12;94160.59;;;3.79;100.00
9277;BME280;4676;42.678;23.244;2024-03-08T05:28:41;94166.53;;;3.71;100.00
9277;BME280;4676;42.678;23.244;2024-03-08T05:31:08;94154.94;;;3.64;100.00
9277;BME280;4676;42.678;23.244;2024-03-08T05:33:35;94177.44;;;3.68;100.00
9277;BME280;4676;42.678;23.244;2024-03-08T05:36:02;94163.41;;;3.53;100.00
9277;BME280;4676;42.678;23.244;2024-03-08T05:38:29;94153.44;;;3.50;100.00
9277;BME280;4676;42.678;23.244;2024-03-08T05:40:55;94190.88;;;3.61;100.00
9277;BME280;4676;42.678;23.244;2024-03-08T05:43:22;94191.69;;;3.63;100.00
9277;BME280;4676;42.678;23.244;2024-03-08T05:45:51;94194.19;;;3.63;100.00
9277;BME280;4676;42.678;23.244;2024-03-08T05:48:18;94197.66;;;3.55;100.00
9277;BME280;4676;42.678;23.244;2024-03-08T05:50:45;94203.59;;;3.46;100.00
9277;BME280;4676;42.678;23.244;2024-03-08T05:53:12;94199.31;;;3.52;100.00
9277;BME280;4676;42.678;23.244;2024-03-08T05:55:38;94203.47;;;3.57;100.00
9277;BME280;4676;42.678;23.244;2024-03-08T05:58:05;94200.88;;;3.64;100.00
9277;BME280;4676;42.678;23.244;2024-03-08T06:00:33;94186.88;;;3.45;100.00
9277;BME280;4676;42.678;23.244;2024-03-08T06:03:03;94203.28;;;3.72;100.00
9277;BME280;4676;42.678;23.244;2024-03-08T06:05:30;94210.06;;;3.65;100.00
9277;BME280;4676;42.678;23.244;2024-03-08T06:07:56;94220.13;;;3.62;100.00
9277;BME280;4676;42.678;23.244;2024-03-08T06:10:23;94221.16;;;3.44;100.00
9277;BME280;4676;42.678;23.244;2024-03-08T06:12:50;94221.13;;;3.47;100.00
9277;BME280;4676;42.678;23.244;2024-03-08T06:15:17;94224.47;;;3.45;100.00
9277;BME280;4676;42.678;23.244;2024-03-08T06:17:46;94225.28;;;3.47;100.00
9277;BME280;4676;42.678;23.244;2024-03-08T06:20:14;94230.22;;;3.53;100.00
9277;BME280;4676;42.678;23.244;2024-03-08T06:22:41;94228.66;;;3.44;100.00
9277;BME280;4676;42.678;23.244;2024-03-08T06:25:08;94231.13;;;3.46;100.00
9277;BME280;4676;42.678;23.244;2024-03-08T06:27:35;94225.25;;;3.51;100.00
9277;BME280;4676;42.678;23.244;2024-03-08T06:30:02;94218.53;;;3.53;100.00
9277;BME280;4676;42.678;23.244;2024-03-08T06:32:30;94227.63;;;3.62;100.00
9277;BME280;4676;42.678;23.244;2024-03-08T06:34:58;94235.19;;;3.56;100.00
9277;BME280;4676;42.678;23.244;2024-03-08T06:37:26;94226.75;;;3.65;100.00
9277;BME280;4676;42.678;23.244;2024-03-08T06:39:53;94233.41;;;3.69;100.00
9277;BME280;4676;42.678;23.244;2024-03-08T06:42:20;94217.50;;;3.71;100.00
9277;BME280;4676;42.678;23.244;2024-03-08T06:44:47;94233.38;;;3.70;100.00
9277;BME280;4676;42.678;23.244;2024-03-08T06:47:15;94234.91;;;3.82;100.00
9277;BME280;4676;42.678;23.244;2024-03-08T06:49:42;94236.50;;;3.89;100.00
9277;BME280;4676;42.678;23.244;2024-03-08T06:52:09;94237.31;;;3.89;100.00
9277;BME280;4676;42.678;23.244;2024-03-08T06:54:37;94231.47;;;3.89;100.00
9277;BME280;4676;42.678;23.244;2024-03-08T06:57:04;94244.09;;;3.81;100.00
9277;BME280;4676;42.678;23.244;2024-03-08T06:59:31;94244.81;;;3.92;100.00
9277;BME280;4676;42.678;23.244;2024-03-08T07:01:58;94246.34;;;4.04;100.00
9277;BME280;4676;42.678;23.244;2024-03-08T07:04:26;94249.63;;;4.08;100.00
9277;BME280;4676;42.678;23.244;2024-03-08T07:06:55;94250.41;;;4.11;100.00
9277;BME280;4676;42.678;23.244;2024-03-08T07:09:22;94242.66;;;4.28;100.00
9277;BME280;4676;42.678;23.244;2024-03-08T07:11:51;94241.63;;;4.41;100.00
9277;BME280;4676;42.678;23.244;2024-03-08T07:14:21;94245.44;;;4.68;100.00
9277;BME280;4676;42.678;23.244;2024-03-08T07:16:48;94248.88;;;4.61;100.00
9277;BME280;4676;42.678;23.244;2024-03-08T07:19:15;94251.41;;;4.61;100.00
9277;BME280;4676;42.678;23.244;2024-03-08T07:21:42;94252.81;;;4.75;100.00
9277;BME280;4676;42.678;23.244;2024-03-08T07:24:09;94253.66;;;4.76;100.00
9277;BME280;4676;42.678;23.244;2024-03-08T07:26:54;94252.88;;;4.72;100.00
9277;BME280;4676;42.678;23.244;2024-03-08T07:29:21;94258.81;;;4.67;100.00
9277;BME280;4676;42.678;23.244;2024-03-08T07:31:47;94256.47;;;4.54;100.00
9277;BME280;4676;42.678;23.244;2024-03-08T07:34:21;94254.81;;;4.55;100.00
9277;BME280;4676;42.678;23.244;2024-03-08T07:36:48;94259.03;;;4.53;100.00
9277;BME280;4676;42.678;23.244;2024-03-08T07:39:16;94260.50;;;4.66;100.00
9277;BME280;4676;42.678;23.244;2024-03-08T07:41:43;94261.97;;;4.81;100.00
9277;BME280;4676;42.678;23.244;2024-03-08T07:44:11;94263.78;;;4.71;100.00
9277;BME280;4676;42.678;23.244;2024-03-08T07:46:39;94262.34;;;4.57;100.00
9277;BME280;4676;42.678;23.244;2024-03-08T07:49:06;94265.03;;;4.43;100.00
9277;BME280;4676;42.678;23.244;2024-03-08T07:51:36;94259.78;;;4.60;100.00
9277;BME280;4676;42.678;23.244;2024-03-08T07:54:03;94261.31;;;4.68;100.00
9277;BME280;4676;42.678;23.244;2024-03-08T07:56:30;94259.63;;;4.69;100.00
9277;BME280;4676;42.678;23.244;2024-03-08T07:58:56;94262.84;;;4.78;100.00
9277;BME280;4676;42.678;23.244;2024-03-08T08:01:25;94257.63;;;4.90;100.00
9277;BME280;4676;42.678;23.244;2024-03-08T08:03:51;94256.25;;;4.71;100.00
9277;BME280;4676;42.678;23.244;2024-03-08T08:06:18;94263.03;;;4.65;100.00
9277;BME280;4676;42.678;23.244;2024-03-08T08:08:45;94253.88;;;4.62;100.00
9277;BME280;4676;42.678;23.244;2024-03-08T08:11:11;94268.94;;;4.62;100.00
9277;BME280;4676;42.678;23.244;2024-03-08T08:13:38;94262.84;;;4.78;100.00
9277;BME280;4676;42.678;23.244;2024-03-08T08:16:05;94260.91;;;4.94;100.00
9277;BME280;4676;42.678;23.244;2024-03-08T08:18:34;94254.81;;;5.10;100.00
9277;BME280;4676;42.678;23.244;2024-03-08T08:21:01;94264.75;;;5.15;100.00
9277;BME280;4676;42.678;23.244;2024-03-08T08:23:28;94266.91;;;5.36;100.00
9277;BME280;4676;42.678;23.244;2024-03-08T08:25:55;94267.72;;;5.36;100.00
9277;BME280;4676;42.678;23.244;2024-03-08T08:28:22;94257.09;;;5.21;100.00
9277;BME280;4676;42.678;23.244;2024-03-08T08:30:50;94263.47;;;5.41;100.00
9277;BME280;4676;42.678;23.244;2024-03-08T08:33:17;94265.91;;;5.44;100.00
9277;BME280;4676;42.678;23.244;2024-03-08T08:35:46;94263.31;;;5.49;100.00
9277;BME280;4676;42.678;23.244;2024-03-08T08:38:13;94265.22;;;5.81;100.00
9277;BME280;4676;42.678;23.244;2024-03-08T08:40:40;94257.41;;;5.96;100.00
9277;BME280;4676;42.678;23.244;2024-03-08T08:43:06;94257.81;;;6.19;100.00
9277;BME280;4676;42.678;23.244;2024-03-08T08:45:33;94246.53;;;6.35;100.00
9277;BME280;4676;42.678;23.244;2024-03-08T08:48:00;94258.66;;;6.17;100.00
9277;BME280;4676;42.678;23.244;2024-03-08T08:50:27;94255.59;;;6.42;100.00
9277;BME280;4676;42.678;23.244;2024-03-08T08:52:55;94254.53;;;6.54;100.00
9277;BME280;4676;42.678;23.244;2024-03-08T08:55:22;94261.59;;;6.75;100.00
9277;BME280;4676;42.678;23.244;2024-03-08T08:57:50;94268.41;;;6.72;100.00
9277;BME280;4676;42.678;23.244;2024-03-08T09:00:18;94261.00;;;6.64;100.00
9277;BME280;4676;42.678;23.244;2024-03-08T09:02:46;94242.94;;;6.45;100.00
9277;BME280;4676;42.678;23.244;2024-03-08T09:05:13;94257.72;;;6.61;100.00
9277;BME280;4676;42.678;23.244;2024-03-08T09:07:42;94255.69;;;6.76;100.00
9277;BME280;4676;42.678;23.244;2024-03-08T09:10:11;94251.19;;;6.89;100.00
9277;BME280;4676;42.678;23.244;2024-03-08T09:12:39;94256.03;;;6.61;100.00
9277;BME280;4676;42.678;23.244;2024-03-08T09:15:07;94252.66;;;6.62;100.00
9277;BME280;4676;42.678;23.244;2024-03-08T09:17:36;94248.00;;;6.82;100.00
9277;BME280;4676;42.678;23.244;2024-03-08T09:20:06;94253.06;;;6.81;100.00
9277;BME280;4676;42.678;23.244;2024-03-08T09:22:34;94252.31;;;6.77;100.00
9277;BME280;4676;42.678;23.244;2024-03-08T09:25:00;94249.84;;;7.10;100.00
9277;BME280;4676;42.678;23.244;2024-03-08T09:27:29;94254.59;;;7.22;100.00
9277;BME280;4676;42.678;23.244;2024-03-08T09:29:56;94261.00;;;7.35;100.00
9277;BME280;4676;42.678;23.244;2024-03-08T09:32:22;94254.38;;;7.63;100.00
9277;BME280;4676;42.678;23.244;2024-03-08T09:34:49;94197.22;;;6.99;100.00
9277;BME280;4676;42.678;23.244;2024-03-08T09:37:16;94256.91;;;7.29;100.00
9277;BME280;4676;42.678;23.244;2024-03-08T09:39:44;94264.81;;;7.16;100.00
9277;BME280;4676;42.678;23.244;2024-03-08T09:42:11;94258.19;;;6.76;100.00
9277;BME280;4676;42.678;23.244;2024-03-08T09:44:44;94254.25;;;7.01;100.00
9277;BME280;4676;42.678;23.244;2024-03-08T09:47:13;94265.34;;;7.28;100.00
9277;BME280;4676;42.678;23.244;2024-03-08T09:49:40;94261.25;;;7.57;100.00
9277;BME280;4676;42.678;23.244;2024-03-08T09:52:08;94249.44;;;7.89;100.00
9277;BME280;4676;42.678;23.244;2024-03-08T09:54:35;94253.97;;;8.09;100.00
9277;BME280;4676;42.678;23.244;2024-03-08T09:57:04;94258.16;;;8.39;100.00
9277;BME280;4676;42.678;23.244;2024-03-08T09:59:30;94258.22;;;8.07;100.00
9277;BME280;4676;42.678;23.244;2024-03-08T10:02:15;94220.38;;;7.45;100.00
9277;BME280;4676;42.678;23.244;2024-03-08T10:04:43;94257.94;;;7.87;100.00
9277;BME280;4676;42.678;23.244;2024-03-08T10:07:12;94256.09;;;8.23;100.00
9277;BME280;4676;42.678;23.244;2024-03-08T10:09:39;94256.34;;;8.14;100.00
9277;BME280;4676;42.678;23.244;2024-03-08T10:12:08;94252.50;;;8.00;100.00
9277;BME280;4676;42.678;23.244;2024-03-08T10:14:39;94254.84;;;8.07;100.00
9277;BME280;4676;42.678;23.244;2024-03-08T10:17:07;94261.09;;;7.95;100.00
9277;BME280;4676;42.678;23.244;2024-03-08T10:19:35;94251.00;;;8.24;100.00
9277;BME280;4676;42.678;23.244;2024-03-08T10:22:02;94247.78;;;8.48;100.00
9277;BME280;4676;42.678;23.244;2024-03-08T10:24:30;94248.84;;;8.41;100.00
9277;BME280;4676;42.678;23.244;2024-03-08T10:26:59;94249.50;;;8.17;100.00
9277;BME280;4676;42.678;23.244;2024-03-08T10:29:27;94261.97;;;7.92;100.00
9277;BME280;4676;42.678;23.244;2024-03-08T10:31:54;94257.72;;;7.64;100.00
9277;BME280;4676;42.678;23.244;2024-03-08T10:34:22;94258.63;;;7.61;100.00
9277;BME280;4676;42.678;23.244;2024-03-08T10:36:51;94254.31;;;7.32;100.00
9277;BME280;4676;42.678;23.244;2024-03-08T10:39:22;94248.91;;;7.47;100.00
9277;BME280;4676;42.678;23.244;2024-03-08T10:41:53;94248.25;;;7.39;100.00
9277;BME280;4676;42.678;23.244;2024-03-08T10:44:36;94243.56;;;7.58;100.00
9277;BME280;4676;42.678;23.244;2024-03-08T10:47:14;94247.88;;;7.54;100.00
9277;BME280;4676;42.678;23.244;2024-03-08T10:49:51;94235.31;;;7.84;100.00
9277;BME280;4676;42.678;23.244;2024-03-08T10:52:22;94236.59;;;7.98;100.00
9277;BME280;4676;42.678;23.244;2024-03-08T10:54:48;94234.00;;;8.01;96.81
9277;BME280;4676;42.678;23.244;2024-03-08T10:57:18;94223.84;;;8.03;100.00
9277;BME280;4676;42.678;23.244;2024-03-08T10:59:47;94221.66;;;8.20;100.00
9277;BME280;4676;42.678;23.244;2024-03-08T11:02:16;94225.31;;;8.10;97.71
9277;BME280;4676;42.678;23.244;2024-03-08T11:04:46;94224.59;;;8.36;91.50
9277;BME280;4676;42.678;23.244;2024-03-08T11:07:14;94217.75;;;8.67;96.51
9277;BME280;4676;42.678;23.244;2024-03-08T11:09:47;94212.06;;;8.87;97.98
9277;BME280;4676;42.678;23.244;2024-03-08T11:12:21;94213.94;;;9.33;97.03
9277;BME280;4676;42.678;23.244;2024-03-08T11:14:51;94194.25;;;9.66;96.19
9277;BME280;4676;42.678;23.244;2024-03-08T11:17:26;94209.03;;;9.53;83.62
9277;BME280;4676;42.678;23.244;2024-03-08T11:19:55;94204.66;;;9.33;90.99
9277;BME280;4676;42.678;23.244;2024-03-08T11:22:23;94214.38;;;9.19;90.21
9277;BME280;4676;42.678;23.244;2024-03-08T11:24:58;94200.31;;;8.86;92.99
9277;BME280;4676;42.678;23.244;2024-03-08T11:27:29;94194.66;;;8.79;93.67
9277;BME280;4676;42.678;23.244;2024-03-08T11:30:00;94202.13;;;8.27;94.48
9277;BME280;4676;42.678;23.244;2024-03-08T11:32:35;94192.59;;;8.07;93.18
9277;BME280;4676;42.678;23.244;2024-03-08T11:35:05;94198.63;;;8.32;99.31
9277;BME280;4676;42.678;23.244;2024-03-08T11:37:34;94196.75;;;8.37;94.36
9277;BME280;4676;42.678;23.244;2024-03-08T11:40:11;94194.84;;;8.45;92.78
9277;BME280;4676;42.678;23.244;2024-03-08T11:42:44;94190.25;;;8.30;89.84
9277;BME280;4676;42.678;23.244;2024-03-08T11:45:12;94195.97;;;8.63;91.48
9277;BME280;4676;42.678;23.244;2024-03-08T11:47:39;94195.31;;;8.58;94.36
9277;BME280;4676;42.678;23.244;2024-03-08T11:50:10;94183.13;;;8.71;95.71
9277;BME280;4676;42.678;23.244;2024-03-08T11:52:37;94189.75;;;8.47;96.27
9277;BME280;4676;42.678;23.244;2024-03-08T11:55:06;94184.47;;;8.55;100.00
9277;BME280;4676;42.678;23.244;2024-03-08T11:57:33;94178.16;;;8.12;97.35
9277;BME280;4676;42.678;23.244;2024-03-08T12:00:00;94186.72;;;8.07;98.93
9277;BME280;4676;42.678;23.244;2024-03-08T12:02:32;94181.22;;;7.92;97.06
9277;BME280;4676;42.678;23.244;2024-03-08T12:05:01;94170.47;;;7.87;93.60
9277;BME280;4676;42.678;23.244;2024-03-08T12:07:28;94184.88;;;7.82;91.39
9277;BME280;4676;42.678;23.244;2024-03-08T12:10:18;94185.94;;;8.04;93.75
9277;BME280;4676;42.678;23.244;2024-03-08T12:12:45;94172.94;;;8.17;93.70
9277;BME280;4676;42.678;23.244;2024-03-08T12:15:13;94183.50;;;8.31;94.62
9277;BME280;4676;42.678;23.244;2024-03-08T12:17:40;94186.59;;;8.40;92.75
9277;BME280;4676;42.678;23.244;2024-03-08T12:20:12;94184.22;;;8.62;93.53
9277;BME280;4676;42.678;23.244;2024-03-08T12:22:41;94178.25;;;8.91;87.16
9277;BME280;4676;42.678;23.244;2024-03-08T12:25:09;94156.97;;;8.72;86.38
9277;BME280;4676;42.678;23.244;2024-03-08T12:27:39;94178.41;;;8.86;92.01
9277;BME280;4676;42.678;23.244;2024-03-08T12:30:19;94170.38;;;8.47;88.46
9277;BME280;4676;42.678;23.244;2024-03-08T12:32:50;94169.19;;;8.02;91.25
9277;BME280;4676;42.678;23.244;2024-03-08T12:35:18;94159.31;;;7.94;91.21
9277;BME280;4676;42.678;23.244;2024-03-08T12:37:49;94160.31;;;7.89;95.22
9277;BME280;4676;42.678;23.244;2024-03-08T12:40:16;94162.19;;;8.12;98.61
9277;BME280;4676;42.678;23.244;2024-03-08T12:42:45;94166.72;;;8.30;91.41
9277;BME280;4676;42.678;23.244;2024-03-08T12:45:14;94156.03;;;8.48;95.57
9277;BME280;4676;42.678;23.244;2024-03-08T12:47:41;94158.97;;;8.88;89.72
9277;BME280;4676;42.678;23.244;2024-03-08T12:50:09;94160.72;;;8.86;86.47
9277;BME280;4676;42.678;23.244;2024-03-08T12:52:36;94137.59;;;8.72;91.68
9277;BME280;4676;42.678;23.244;2024-03-08T12:55:09;94151.72;;;9.04;97.20
9277;BME280;4676;42.678;23.244;2024-03-08T12:57:37;94156.09;;;9.24;94.14
9277;BME280;4676;42.678;23.244;2024-03-08T13:00:06;94154.53;;;8.95;90.78
9277;BME280;4676;42.678;23.244;2024-03-08T13:02:38;94158.97;;;8.88;88.94
9277;BME280;4676;42.678;23.244;2024-03-08T13:05:06;94153.53;;;8.74;92.92
9277;BME280;4676;42.678;23.244;2024-03-08T13:07:35;94153.03;;;8.63;91.67
9277;BME280;4676;42.678;23.244;2024-03-08T13:10:03;94150.50;;;8.37;92.22
9277;BME280;4676;42.678;23.244;2024-03-08T13:12:30;94157.09;;;8.41;93.58
9277;BME280;4676;42.678;23.244;2024-03-08T13:14:57;94150.72;;;8.57;100.00
9277;BME280;4676;42.678;23.244;2024-03-08T13:17:25;94149.19;;;8.78;100.00